Time;durP1;ratioP1;P1;durP2;ratioP2;P2;SDS_P1;SDS_P2;PMS_P1;PMS_P2;Temp;Humidity;BMP_temperature;BMP_pressure;BME280_temperature;BME280_humidity;BME280_pressure;Samples;Min_cycle;Max_cycle;Signal;HPM_P1;HPM_P2
2022/05/20 00:01:45;;;;;;;13.27;7.00;;;12.80;99.90;;;;;;4954606;28;20073;-85
2022/05/20 00:04:11;;;;;;;13.43;7.35;;;12.80;99.90;;;;;;4938440;28;20051;-85
2022/05/20 00:06:37;;;;;;;12.55;8.23;;;12.80;99.90;;;;;;4954692;28;20078;-89
2022/05/20 00:09:03;;;;;;;16.27;10.95;;;12.70;99.90;;;;;;4956617;28;20078;-84
2022/05/20 00:11:29;;;;;;;20.95;11.48;;;12.60;99.90;;;;;;4962935;28;20512;-82
2022/05/20 00:13:56;;;;;;;16.85;10.73;;;12.60;99.90;;;;;;4965963;28;20051;-84
2022/05/20 00:16:22;;;;;;;15.90;10.27;;;12.60;99.90;;;;;;4958819;28;20113;-90
2022/05/20 00:18:48;;;;;;;20.92;11.77;;;12.50;99.90;;;;;;4976035;28;20129;-85
2022/05/20 00:21:13;;;;;;;24.67;11.65;;;12.50;99.90;;;;;;4975923;28;20495;-91
2022/05/20 00:23:40;;;;;;;22.02;12.77;;;12.50;99.90;;;;;;4958738;28;20058;-87
2022/05/20 00:26:05;;;;;;;25.17;13.82;;;12.40;99.90;;;;;;4982689;28;20066;-86
2022/05/20 00:28:31;;;;;;;19.30;13.07;;;12.40;99.90;;;;;;4976849;28;20051;-85
2022/05/20 00:31:10;;;;;;;20.48;12.82;;;12.40;99.90;;;;;;4958443;28;20085;-86
2022/05/20 00:33:37;;;;;;;21.27;12.25;;;12.40;99.90;;;;;;4974574;28;20109;-88
2022/05/20 00:36:04;;;;;;;21.48;14.80;;;12.40;99.90;;;;;;4959736;28;20051;-83
2022/05/20 00:38:30;;;;;;;21.08;14.02;;;12.30;99.90;;;;;;4986131;28;20050;-86
2022/05/20 00:41:00;;;;;;;19.83;13.88;;;12.30;99.90;;;;;;4978985;28;20039;-82
2022/05/20 00:43:28;;;;;;;23.92;16.55;;;12.30;99.90;;;;;;4983010;28;20047;-88
2022/05/20 00:45:58;;;;;;;30.77;19.55;;;12.30;99.90;;;;;;4960217;28;20054;-86
2022/05/20 00:48:24;;;;;;;35.15;20.02;;;12.20;99.90;;;;;;4965429;28;20059;-85
2022/05/20 00:50:56;;;;;;;27.40;20.02;;;12.20;99.90;;;;;;4958787;28;20149;-86
2022/05/20 00:53:26;;;;;;;32.35;21.13;;;12.20;99.90;;;;;;4975801;28;20062;-86
2022/05/20 00:55:52;;;;;;;29.42;20.00;;;12.20;99.90;;;;;;4975771;28;20130;-86
2022/05/20 00:58:23;;;;;;;34.10;23.55;;;12.10;99.90;;;;;;4975615;28;20142;-88
2022/05/20 01:00:52;;;;;;;29.35;19.05;;;12.10;99.90;;;;;;4957831;28;20051;-82
2022/05/20 01:03:24;;;;;;;33.72;20.23;;;12.00;99.90;;;;;;4982350;28;20051;-90
2022/05/20 01:05:51;;;;;;;29.50;20.17;;;12.00;99.90;;;;;;4977755;28;20150;-87
2022/05/20 01:08:20;;;;;;;27.27;19.42;;;12.00;99.90;;;;;;4982854;28;20151;-84
2022/05/20 01:10:46;;;;;;;25.33;18.48;;;12.00;99.90;;;;;;4977211;28;20487;-90
2022/05/20 01:13:15;;;;;;;28.75;19.17;;;12.00;99.90;;;;;;4980086;28;20046;-86
2022/05/20 01:15:41;;;;;;;25.98;17.73;;;12.00;99.90;;;;;;4976236;28;20078;-88
2022/05/20 01:18:08;;;;;;;22.05;14.48;;;12.00;99.90;;;;;;4975718;28;20049;-91
2022/05/20 01:20:38;;;;;;;34.15;19.15;;;12.00;99.90;;;;;;4975000;28;20108;-87
2022/05/20 01:23:10;;;;;;;29.75;18.17;;;11.90;99.90;;;;;;4975213;28;20047;-88
2022/05/20 01:25:39;;;;;;;29.63;18.35;;;11.90;99.90;;;;;;4979211;28;20083;-82
2022/05/20 01:28:05;;;;;;;24.80;16.95;;;11.90;99.90;;;;;;4957490;28;20063;-89
2022/05/20 01:30:32;;;;;;;26.15;16.98;;;12.00;99.90;;;;;;4963113;28;20603;-86
2022/05/20 01:33:05;;;;;;;23.60;11.98;;;12.00;99.90;;;;;;4976953;28;20109;-89
2022/05/20 01:35:43;;;;;;;25.50;17.27;;;12.00;99.90;;;;;;4974940;28;20047;-82
2022/05/20 01:38:11;;;;;;;26.58;15.15;;;12.00;99.90;;;;;;4957663;28;20583;-81
2022/05/20 01:41:02;;;;;;;27.60;15.48;;;12.00;99.90;;;;;;4964275;28;20042;-88
2022/05/20 01:43:46;;;;;;;25.20;16.48;;;12.10;99.90;;;;;;4972181;28;20090;-85
2022/05/20 01:46:49;;;;;;;23.60;13.05;;;12.00;99.90;;;;;;4975995;28;20050;-88
2022/05/20 01:49:27;;;;;;;21.30;14.65;;;12.00;99.90;;;;;;4977977;28;20569;-81
2022/05/20 01:52:16;;;;;;;25.50;15.40;;;12.00;99.90;;;;;;4961267;28;20172;-83
2022/05/20 01:54:52;;;;;;;26.13;15.82;;;12.10;99.90;;;;;;4975684;28;20137;-82
2022/05/20 01:57:22;;;;;;;25.90;14.40;;;12.00;99.90;;;;;;4958722;28;20047;-83
2022/05/20 01:59:54;;;;;;;29.60;15.60;;;12.00;99.90;;;;;;4980283;28;20042;-83
2022/05/20 02:02:30;;;;;;;24.80;14.65;;;12.10;99.90;;;;;;4978965;28;20101;-86
2022/05/20 02:05:05;;;;;;;23.92;15.52;;;12.00;99.90;;;;;;4978652;28;20047;-91
2022/05/20 02:07:35;;;;;;;23.50;15.77;;;12.00;99.90;;;;;;4967043;28;20116;-83
2022/05/20 02:10:22;;;;;;;22.25;13.55;;;12.00;99.90;;;;;;4956872;28;20047;-82
2022/05/20 02:12:52;;;;;;;24.85;15.63;;;12.00;99.90;;;;;;4974736;28;20047;-88
2022/05/20 02:15:47;;;;;;;26.05;16.05;;;12.00;99.90;;;;;;4959853;28;20059;-89
2022/05/20 02:18:19;;;;;;;22.67;15.70;;;11.90;99.90;;;;;;4954939;29;20073;-85
2022/05/20 02:20:48;;;;;;;26.85;17.05;;;11.90;99.90;;;;;;4987443;28;20055;-81
2022/05/20 02:23:22;;;;;;;30.30;17.02;;;11.90;99.90;;;;;;4975141;28;20055;-81
2022/05/20 02:25:52;;;;;;;29.33;17.07;;;11.90;99.90;;;;;;4977395;28;20047;-81
2022/05/20 02:28:27;;;;;;;25.70;16.30;;;11.90;99.90;;;;;;4976003;28;20137;-88
2022/05/20 02:30:54;;;;;;;34.42;18.92;;;11.90;99.90;;;;;;4959914;29;20051;-84
2022/05/20 02:33:25;;;;;;;31.52;19.25;;;11.90;99.90;;;;;;4974003;28;20095;-81
2022/05/20 02:35:59;;;;;;;19.33;14.15;;;11.90;99.90;;;;;;4977772;28;20137;-88
2022/05/20 02:38:25;;;;;;;33.83;21.13;;;11.90;99.90;;;;;;4964372;28;20491;-83
2022/05/20 02:40:53;;;;;;;30.08;20.45;;;11.90;99.90;;;;;;4973937;28;20057;-84
2022/05/20 02:43:21;;;;;;;30.55;20.48;;;11.90;99.90;;;;;;4955916;28;20210;-83
2022/05/20 02:45:49;;;;;;;28.88;19.42;;;11.90;99.90;;;;;;4972108;28;20501;-82
2022/05/20 02:48:18;;;;;;;29.42;20.60;;;11.90;99.90;;;;;;4955909;28;20058;-82
2022/05/20 02:50:44;;;;;;;28.65;18.60;;;11.90;99.90;;;;;;4973165;28;20042;-82
2022/05/20 02:53:12;;;;;;;30.95;20.40;;;11.90;99.90;;;;;;4973147;28;20051;-85
2022/05/20 02:55:38;;;;;;;26.75;17.20;;;11.90;99.90;;;;;;4979076;28;20109;-86
2022/05/20 02:58:04;;;;;;;38.83;21.70;;;11.90;99.90;;;;;;4981579;28;20053;-83
2022/05/20 03:05:59;;;;;;;29.03;18.80;;;11.90;99.90;;;;;;4973527;28;20047;-84
2022/05/20 03:08:24;;;;;;;27.83;16.95;;;11.90;99.90;;;;;;4956122;28;20065;-87
2022/05/20 03:10:50;;;;;;;29.35;18.15;;;11.80;99.90;;;;;;4956500;28;20055;-87
2022/05/20 03:13:17;;;;;;;23.52;15.93;;;11.80;99.90;;;;;;4973054;28;20061;-84
2022/05/20 03:15:44;;;;;;;35.30;20.08;;;11.80;99.90;;;;;;4973255;28;20054;-84
2022/05/20 03:18:12;;;;;;;33.47;20.25;;;11.80;99.90;;;;;;4959863;28;20055;-81
2022/05/20 03:20:40;;;;;;;35.30;20.45;;;11.80;99.90;;;;;;4973125;28;20054;-82
2022/05/20 03:23:06;;;;;;;28.52;19.23;;;11.80;99.90;;;;;;4962469;28;20069;-83
2022/05/20 03:25:34;;;;;;;27.77;18.17;;;11.70;99.90;;;;;;4973972;28;20086;-82
2022/05/20 03:28:01;;;;;;;32.45;20.35;;;11.70;99.90;;;;;;4976638;28;20065;-82
2022/05/20 03:30:27;;;;;;;30.55;19.50;;;11.70;99.90;;;;;;4972946;28;20051;-84
2022/05/20 03:32:53;;;;;;;25.80;16.98;;;11.60;99.90;;;;;;4963076;28;20433;-83
2022/05/20 03:35:19;;;;;;;28.83;17.98;;;11.70;99.90;;;;;;4973215;28;20272;-82
2022/05/20 03:37:45;;;;;;;32.08;21.08;;;11.60;99.90;;;;;;4972609;28;20058;-81
2022/05/20 03:40:11;;;;;;;32.60;21.25;;;11.60;99.90;;;;;;4971562;28;20109;-85
2022/05/20 03:42:37;;;;;;;30.95;20.05;;;11.60;99.90;;;;;;4972860;28;20050;-84
2022/05/20 03:45:04;;;;;;;26.30;18.77;;;11.60;99.90;;;;;;4971515;28;20062;-83
2022/05/20 03:47:30;;;;;;;27.75;19.58;;;11.60;99.90;;;;;;4972111;28;20113;-84
2022/05/20 03:49:55;;;;;;;27.52;19.15;;;11.60;99.90;;;;;;4960440;28;20046;-84
2022/05/20 03:52:21;;;;;;;26.63;18.73;;;11.60;99.90;;;;;;4981309;28;20403;-83
2022/05/20 03:54:47;;;;;;;28.08;19.98;;;11.60;99.90;;;;;;4972621;28;20365;-89
2022/05/20 03:57:13;;;;;;;29.67;19.27;;;11.60;99.90;;;;;;4955104;28;20089;-83
2022/05/20 03:59:39;;;;;;;20.95;14.77;;;11.60;99.90;;;;;;4972553;28;20109;-85
2022/05/20 04:02:11;;;;;;;25.88;16.38;;;11.60;99.90;;;;;;4972558;28;20042;-85
2022/05/20 04:04:40;;;;;;;29.08;20.23;;;11.60;99.90;;;;;;4972277;28;20051;-87
2022/05/20 04:07:15;;;;;;;32.40;20.17;;;11.60;99.90;;;;;;4963167;28;20081;-84
2022/05/20 04:09:41;;;;;;;28.88;20.88;;;11.70;99.90;;;;;;4983362;28;20130;-83
2022/05/20 04:12:13;;;;;;;35.92;20.67;;;11.70;99.90;;;;;;4976729;28;20058;-82
2022/05/20 04:14:39;;;;;;;28.33;19.63;;;11.70;99.90;;;;;;4980520;28;20047;-84
2022/05/20 04:17:05;;;;;;;26.88;17.15;;;11.80;99.90;;;;;;4985256;28;20058;-83
2022/05/20 04:19:33;;;;;;;32.75;20.92;;;11.90;99.90;;;;;;4957532;28;20499;-81
2022/05/20 04:22:04;;;;;;;28.58;18.77;;;11.90;99.90;;;;;;4973411;28;20568;-81
2022/05/20 04:24:31;;;;;;;28.35;18.63;;;11.90;99.90;;;;;;4973205;28;20049;-81
2022/05/20 04:26:57;;;;;;;22.48;16.60;;;12.00;99.90;;;;;;4973595;28;20046;-87
2022/05/20 04:29:23;;;;;;;33.95;19.25;;;12.00;99.90;;;;;;4965301;28;20051;-82
2022/05/20 04:31:50;;;;;;;30.15;20.73;;;12.10;99.90;;;;;;4979955;28;20046;-81
2022/05/20 04:34:17;;;;;;;23.65;17.98;;;12.10;99.90;;;;;;4955941;28;20406;-81
2022/05/20 04:36:44;;;;;;;27.35;17.98;;;12.10;99.90;;;;;;4972650;28;20510;-82
2022/05/20 04:39:10;;;;;;;27.13;19.05;;;12.20;99.90;;;;;;4955908;28;20062;-82
2022/05/20 04:47:23;;;;;;;33.65;16.88;;;12.20;99.90;;;;;;4961253;28;20066;-82
2022/05/20 04:49:49;;;;;;;27.20;18.30;;;12.20;99.90;;;;;;4978097;28;20061;-83
2022/05/20 04:52:15;;;;;;;25.25;15.52;;;12.20;99.90;;;;;;4955460;28;20137;-82
2022/05/20 04:54:50;;;;;;;23.27;16.60;;;12.10;99.90;;;;;;4962321;28;20050;-84
2022/05/20 04:57:25;;;;;;;26.10;16.05;;;12.10;99.90;;;;;;4957399;28;20078;-84
2022/05/20 04:59:53;;;;;;;26.98;16.73;;;12.10;99.90;;;;;;4956883;28;20093;-82
2022/05/20 05:02:20;;;;;;;21.52;14.70;;;12.20;99.90;;;;;;4976393;28;20065;-83
2022/05/20 05:04:47;;;;;;;32.00;16.92;;;12.20;99.90;;;;;;4974659;28;20873;-84
2022/05/20 05:07:13;;;;;;;24.25;16.33;;;12.30;99.90;;;;;;4974216;28;20051;-83
2022/05/20 05:09:40;;;;;;;20.25;12.70;;;12.40;99.90;;;;;;4974230;28;20043;-84
2022/05/20 05:12:07;;;;;;;24.13;15.95;;;12.50;99.90;;;;;;4958818;28;20059;-83
2022/05/20 05:14:38;;;;;;;29.20;16.42;;;12.60;99.90;;;;;;4987374;28;20073;-85
2022/05/20 05:17:06;;;;;;;20.70;12.60;;;12.70;99.90;;;;;;4963402;28;20055;-84
2022/05/20 05:19:34;;;;;;;29.42;15.57;;;12.80;99.90;;;;;;4959888;28;20082;-82
2022/05/20 05:21:59;;;;;;;25.50;15.85;;;12.90;99.90;;;;;;4982145;28;20055;-83
2022/05/20 05:24:25;;;;;;;20.33;15.05;;;13.00;99.90;;;;;;4959082;28;20063;-83
2022/05/20 05:26:51;;;;;;;19.40;14.35;;;13.10;99.90;;;;;;4959666;28;20079;-86
2022/05/20 05:29:17;;;;;;;20.45;13.55;;;13.20;99.90;;;;;;4961666;28;20042;-84
2022/05/20 05:31:43;;;;;;;21.73;14.02;;;13.30;99.90;;;;;;4983393;28;20054;-82
2022/05/20 05:34:10;;;;;;;21.48;11.38;;;13.40;99.90;;;;;;4982886;28;20098;-88
2022/05/20 05:36:36;;;;;;;17.77;11.07;;;13.40;99.90;;;;;;4979314;28;20074;-85
2022/05/20 05:39:03;;;;;;;22.40;11.20;;;13.60;99.90;;;;;;4978302;28;20058;-87
2022/05/20 05:41:28;;;;;;;16.30;9.52;;;13.60;99.90;;;;;;4974719;28;20050;-84
2022/05/20 05:43:55;;;;;;;16.02;11.13;;;13.70;99.90;;;;;;4957996;28;20116;-82
2022/05/20 05:46:20;;;;;;;20.55;10.30;;;13.80;99.90;;;;;;4980341;28;20129;-86
2022/05/20 05:48:46;;;;;;;15.88;10.20;;;13.90;99.90;;;;;;4964692;28;20601;-86
2022/05/20 05:51:12;;;;;;;19.88;11.63;;;14.00;99.90;;;;;;4957626;28;20085;-87
2022/05/20 05:53:38;;;;;;;13.15;7.60;;;14.10;99.90;;;;;;4974373;28;20054;-86
2022/05/20 05:56:06;;;;;;;14.90;7.43;;;14.10;99.90;;;;;;4975090;28;20054;-88
2022/05/20 05:58:33;;;;;;;17.75;8.27;;;14.20;99.90;;;;;;4960272;28;20055;-90
2022/05/20 06:00:59;;;;;;;15.68;9.13;;;14.30;99.90;;;;;;4957628;28;20119;-82
2022/05/20 06:03:25;;;;;;;17.75;9.82;;;14.30;99.90;;;;;;4957083;28;20141;-83
2022/05/20 06:05:51;;;;;;;13.57;8.82;;;14.40;99.90;;;;;;4976583;28;20057;-90
2022/05/20 06:08:17;;;;;;;16.15;7.43;;;14.50;99.90;;;;;;4980566;28;20058;-85
2022/05/20 06:10:45;;;;;;;17.17;7.43;;;14.50;99.90;;;;;;4978328;28;20047;-88
2022/05/20 06:13:11;;;;;;;12.63;7.65;;;14.50;99.90;;;;;;4973199;28;20105;-83
2022/05/20 06:15:38;;;;;;;14.70;7.78;;;14.40;99.90;;;;;;4974793;28;20534;-83
2022/05/20 06:18:04;;;;;;;14.88;6.60;;;14.40;99.90;;;;;;4975823;28;20399;-84
2022/05/20 06:20:31;;;;;;;14.77;6.35;;;14.50;99.90;;;;;;4961173;28;20051;-89
2022/05/20 06:22:57;;;;;;;14.30;6.68;;;14.70;99.90;;;;;;4977334;28;20113;-89
2022/05/20 06:25:23;;;;;;;11.80;6.13;;;15.00;99.90;;;;;;4974303;28;20055;-84
2022/05/20 06:27:49;;;;;;;14.25;7.10;;;15.30;99.90;;;;;;4956256;28;20054;-91
2022/05/20 06:30:18;;;;;;;9.55;5.70;;;15.60;99.90;;;;;;4978258;28;20109;-85
2022/05/20 06:32:44;;;;;;;11.63;6.15;;;15.80;99.90;;;;;;4975999;28;20046;-89
2022/05/20 06:40:47;;;;;;;12.43;5.43;;;15.90;99.90;;;;;;4978352;28;20113;-93
2022/05/20 06:43:14;;;;;;;11.48;5.50;;;16.00;99.90;;;;;;4982094;28;20051;-86
2022/05/20 06:45:41;;;;;;;13.07;4.32;;;16.10;99.90;;;;;;4973956;28;20058;-91
2022/05/20 06:48:08;;;;;;;10.45;4.32;;;16.10;99.90;;;;;;4975107;28;20058;-95
2022/05/20 06:50:37;;;;;;;10.10;4.88;;;16.00;99.90;;;;;;4957689;28;20051;-91
2022/05/20 06:53:03;;;;;;;18.45;4.72;;;15.90;99.90;;;;;;4974695;28;20046;-92
2022/05/20 06:55:29;;;;;;;13.52;5.90;;;15.90;99.90;;;;;;4974604;28;20526;-84
2022/05/20 06:57:55;;;;;;;11.07;4.90;;;16.00;99.90;;;;;;4962146;28;20069;-90
2022/05/20 07:00:21;;;;;;;12.48;5.47;;;16.10;99.90;;;;;;4968090;28;20043;-84
2022/05/20 07:02:46;;;;;;;9.85;5.03;;;16.30;99.90;;;;;;4979672;28;20055;-86
2022/05/20 07:05:12;;;;;;;15.73;5.90;;;16.40;99.90;;;;;;4980904;28;20101;-84
2022/05/20 07:07:39;;;;;;;10.90;6.47;;;16.50;99.90;;;;;;4978234;28;20692;-86
2022/05/20 07:10:07;;;;;;;14.82;6.97;;;16.70;99.90;;;;;;4979396;28;20051;-92
2022/05/20 07:12:34;;;;;;;12.38;6.75;;;16.80;99.90;;;;;;4961110;28;20487;-84
2022/05/20 07:15:00;;;;;;;11.30;6.65;;;16.80;99.90;;;;;;4973813;28;20065;-86
2022/05/20 07:17:27;;;;;;;9.75;6.30;;;17.00;99.90;;;;;;4950700;28;20058;-87
2022/05/20 07:19:53;;;;;;;12.68;7.18;;;17.20;99.90;;;;;;4963851;28;20051;-84
2022/05/20 07:22:19;;;;;;;11.73;7.18;;;17.40;99.90;;;;;;4973529;28;20184;-85
2022/05/20 07:24:45;;;;;;;11.23;6.45;;;17.70;99.90;;;;;;4973529;28;20491;-89
2022/05/20 07:27:11;;;;;;;14.15;7.10;;;17.70;99.90;;;;;;4957752;28;20053;-84
2022/05/20 07:29:38;;;;;;;9.85;6.35;;;17.70;99.90;;;;;;4959899;28;20054;-84
2022/05/20 07:32:04;;;;;;;11.38;6.40;;;17.80;99.90;;;;;;4959292;28;20051;-91
2022/05/20 07:34:30;;;;;;;15.57;6.18;;;17.80;99.90;;;;;;4973387;28;20054;-85
2022/05/20 07:36:57;;;;;;;11.50;5.80;;;17.70;99.90;;;;;;4962963;28;20508;-85
2022/05/20 07:39:22;;;;;;;11.95;5.18;;;17.70;99.90;;;;;;4955850;28;20082;-85
2022/05/20 07:41:48;;;;;;;11.43;5.57;;;17.60;99.90;;;;;;4939082;28;20090;-84
2022/05/20 07:44:14;;;;;;;10.15;5.38;;;17.40;99.90;;;;;;4972476;28;20056;-84
2022/05/20 07:46:41;;;;;;;11.73;5.78;;;17.40;99.90;;;;;;4972357;28;20138;-93
2022/05/20 07:49:07;;;;;;;8.65;4.45;;;17.60;99.90;;;;;;4979343;28;20051;-93
2022/05/20 07:51:34;;;;;;;10.00;4.85;;;17.80;99.90;;;;;;4976020;28;20551;-85
2022/05/20 07:54:04;;;;;;;8.63;4.40;;;17.90;99.90;;;;;;4972908;28;20105;-85
2022/05/20 07:56:38;;;;;;;10.25;4.00;;;18.20;99.90;;;;;;4960973;28;20058;-86
2022/05/20 07:59:19;;;;;;;10.13;4.65;;;18.30;99.90;;;;;;4958805;28;20093;-93
2022/05/20 08:01:49;;;;;;;10.13;4.45;;;18.60;99.90;;;;;;4973284;28;20419;-88
2022/05/20 08:07:41;;;;;;;8.70;4.95;;;18.70;99.90;;;;;;4973974;28;20507;-86
2022/05/20 08:10:14;;;;;;;11.52;4.78;;;18.60;99.90;;;;;;4956532;28;20043;-95
2022/05/20 08:12:39;;;;;;;9.15;4.75;;;18.40;99.90;;;;;;4976174;28;20063;-84
2022/05/20 08:15:06;;;;;;;13.50;5.75;;;18.20;99.90;;;;;;4972427;28;20460;-85
2022/05/20 08:17:36;;;;;;;12.63;5.80;;;18.10;99.90;;;;;;4957764;28;20051;-85
2022/05/20 08:20:07;;;;;;;7.15;3.83;;;18.00;99.90;;;;;;4943870;28;20133;-89
2022/05/20 08:22:33;;;;;;;9.15;4.13;;;18.20;99.90;;;;;;4956144;28;20562;-93
2022/05/20 08:24:58;;;;;;;8.65;4.60;;;18.30;99.90;;;;;;4976470;28;20141;-91
2022/05/20 08:27:27;;;;;;;8.88;4.05;;;18.50;99.90;;;;;;4972999;28;20078;-95
2022/05/20 08:29:53;;;;;;;10.63;5.93;;;18.90;99.90;;;;;;4984392;28;20050;-90
2022/05/20 08:32:19;;;;;;;9.40;4.57;;;19.10;99.90;;;;;;4970172;28;20123;-88
2022/05/20 08:34:46;;;;;;;7.50;4.85;;;19.40;99.90;;;;;;4948055;28;20051;-89
2022/05/20 08:37:14;;;;;;;8.82;4.70;;;19.40;99.90;;;;;;4977236;28;20070;-93
2022/05/20 08:39:40;;;;;;;10.93;5.43;;;19.40;99.90;;;;;;4959608;28;20062;-90
2022/05/20 08:42:19;;;;;;;9.70;4.97;;;19.50;99.90;;;;;;4964575;28;20065;-86
2022/05/20 08:44:46;;;;;;;12.32;5.40;;;19.40;99.90;;;;;;4982285;28;20051;-94
2022/05/20 08:47:22;;;;;;;8.85;5.88;;;19.10;99.90;;;;;;4980576;28;20430;-87
2022/05/20 08:49:57;;;;;;;11.80;5.25;;;19.10;99.90;;;;;;4976485;28;20043;-86
2022/05/20 08:52:23;;;;;;;;;;;19.40;99.90;;;;;;4979835;28;20063;-89
2022/05/20 08:54:48;;;;;;;9.32;5.05;;;19.30;99.90;;;;;;4981690;28;20064;-90
2022/05/20 08:57:24;;;;;;;9.38;4.28;;;19.50;99.90;;;;;;4963061;28;20062;-85
2022/05/20 08:59:52;;;;;;;8.85;4.63;;;19.50;99.90;;;;;;4984446;28;20105;-86
2022/05/20 09:02:20;;;;;;;8.60;4.55;;;19.70;99.90;;;;;;4930562;29;20083;-88
2022/05/20 09:04:46;;;;;;;7.72;4.05;;;19.90;99.90;;;;;;4955995;29;20507;-87
2022/05/20 09:07:15;;;;;;;8.48;3.38;;;19.90;99.90;;;;;;4940693;29;20388;-93
2022/05/20 09:09:56;;;;;;;11.98;4.50;;;20.00;99.90;;;;;;4923816;29;20051;-86
2022/05/20 09:12:31;;;;;;;7.05;3.50;;;20.10;99.90;;;;;;4956345;29;20147;-86
2022/05/20 09:17:48;;;;;;;10.68;4.13;;;20.20;99.90;;;;;;4947704;29;20091;-88
2022/05/20 09:20:18;;;;;;;10.27;4.03;;;20.30;99.90;;;;;;4950184;29;20158;-93
2022/05/20 09:23:02;;;;;;;8.43;4.07;;;20.30;99.90;;;;;;4939374;29;20106;-86
2022/05/20 09:25:33;;;;;;;11.05;4.10;;;20.20;99.90;;;;;;4923489;29;20504;-84
2022/05/20 09:28:39;;;;;;;8.73;4.93;;;20.60;99.90;;;;;;4955961;29;20059;-91
2022/05/20 09:31:33;;;;;;;10.50;3.63;;;20.70;98.20;;;;;;4956710;29;20055;-91
2022/05/20 09:34:08;;;;;;;10.25;4.22;;;20.60;98.80;;;;;;4943584;29;20061;-87
2022/05/20 09:36:45;;;;;;;5.90;3.38;;;20.60;98.00;;;;;;4939696;29;20829;-85
2022/05/20 09:39:17;;;;;;;9.95;4.10;;;20.70;99.20;;;;;;4942501;29;20102;-85
2022/05/20 09:42:10;;;;;;;11.80;4.13;;;20.80;99.30;;;;;;4963178;29;20047;-92
2022/05/20 09:44:47;;;;;;;11.60;4.07;;;20.90;98.80;;;;;;4929460;29;20078;-87
2022/05/20 09:47:38;;;;;;;9.23;4.32;;;21.00;98.90;;;;;;4960241;28;20089;-85
2022/05/20 09:50:41;;;;;;;10.07;4.25;;;20.90;98.40;;;;;;4963031;29;20066;-87
2022/05/20 09:53:10;;;;;;;9.15;3.45;;;21.00;97.10;;;;;;4942546;29;20135;-91
2022/05/20 09:55:39;;;;;;;7.22;3.80;;;21.00;98.30;;;;;;4923775;29;20054;-88
2022/05/20 09:58:27;;;;;;;8.88;4.25;;;21.20;98.20;;;;;;4940045;29;20078;-87
2022/05/20 10:00:55;;;;;;;9.75;4.05;;;21.40;98.30;;;;;;4965368;28;20090;-94
2022/05/20 10:03:38;;;;;;;11.55;3.53;;;21.00;98.00;;;;;;4961280;28;20055;-84
2022/05/20 10:06:30;;;;;;;7.78;3.80;;;21.00;97.10;;;;;;4953872;28;20051;-86
2022/05/20 10:09:22;;;;;;;6.90;3.85;;;21.10;97.50;;;;;;4988601;28;20078;-89
2022/05/20 10:11:59;;;;;;;7.43;3.30;;;21.00;97.90;;;;;;4971265;28;20055;-91
2022/05/20 10:14:56;;;;;;;6.10;2.90;;;21.10;96.70;;;;;;4942641;28;20513;-86
2022/05/20 10:17:43;;;;;;;8.90;3.45;;;21.20;97.00;;;;;;4975504;28;20086;-86
2022/05/20 10:20:20;;;;;;;7.68;3.40;;;21.20;97.00;;;;;;4961128;28;20055;-86
2022/05/20 10:22:45;;;;;;;5.78;2.85;;;21.20;97.60;;;;;;4941211;28;20062;-89
2022/05/20 10:25:24;;;;;;;8.88;3.13;;;21.20;97.70;;;;;;4975018;28;20046;-91
2022/05/20 10:28:12;;;;;;;6.57;3.03;;;21.10;95.70;;;;;;4958929;28;20062;-89
2022/05/20 10:33:42;;;;;;;6.20;2.45;;;21.10;96.00;;;;;;4975591;28;20065;-91
2022/05/20 10:36:56;;;;;;;5.65;2.33;;;21.00;97.50;;;;;;4940826;28;20058;-92
2022/05/20 10:39:44;;;;;;;8.55;3.50;;;21.10;96.10;;;;;;4893215;28;20104;-88
2022/05/20 10:42:23;;;;;;;9.93;4.13;;;21.10;96.20;;;;;;4974091;28;20178;-85
2022/05/20 10:51:37;;;;;;;6.97;3.28;;;21.40;97.00;;;;;;4976944;28;20050;-85
2022/05/20 10:57:32;;;;;;;10.05;3.75;;;21.40;97.40;;;;;;5336565;23;20072;-86
2022/05/20 11:00:00;;;;;;;8.18;3.47;;;21.20;97.20;;;;;;4970677;28;20082;-86
2022/05/20 11:02:48;;;;;;;10.05;4.35;;;21.10;97.20;;;;;;4979674;28;20078;-85
2022/05/20 11:05:39;;;;;;;7.47;3.65;;;21.10;96.90;;;;;;4980779;28;20055;-86
2022/05/20 11:08:20;;;;;;;9.23;3.40;;;21.00;96.90;;;;;;4973573;28;20054;-86
2022/05/20 11:10:58;;;;;;;7.72;3.75;;;20.90;96.10;;;;;;4973613;28;20113;-86
2022/05/20 11:13:50;;;;;;;7.68;4.15;;;20.80;96.80;;;;;;4978659;28;20137;-85
2022/05/20 11:16:52;;;;;;;7.38;4.00;;;20.80;96.80;;;;;;4950905;28;20066;-84
2022/05/20 11:19:54;;;;;;;9.02;3.55;;;20.80;96.60;;;;;;4974970;28;20058;-86
2022/05/20 11:22:58;;;;;;;10.30;4.75;;;20.90;97.40;;;;;;4939760;28;20073;-84
2022/05/20 11:25:35;;;;;;;7.38;3.20;;;21.00;96.40;;;;;;4972920;28;20054;-85
2022/05/20 11:28:18;;;;;;;6.20;3.10;;;21.00;97.10;;;;;;4974275;28;20078;-89
2022/05/20 11:31:10;;;;;;;10.63;3.55;;;21.10;94.70;;;;;;4980406;28;20050;-85
2022/05/20 11:34:20;;;;;;;5.78;2.72;;;21.00;94.60;;;;;;4960986;28;20055;-84
2022/05/20 11:36:49;;;;;;;6.65;2.70;;;21.10;96.30;;;;;;4925382;28;20054;-84
2022/05/20 11:39:45;;;;;;;7.88;3.95;;;21.20;96.50;;;;;;4955172;28;20054;-86
2022/05/20 11:42:28;;;;;;;11.43;3.70;;;21.30;95.00;;;;;;4956492;28;20054;-86
2022/05/20 11:45:28;;;;;;;7.38;3.28;;;21.60;97.40;;;;;;4979302;28;20047;-88
2022/05/20 11:48:05;;;;;;;9.40;3.42;;;21.60;96.60;;;;;;4978660;28;20455;-85
2022/05/20 11:50:49;;;;;;;7.03;3.33;;;21.60;96.00;;;;;;4967337;28;20137;-88
2022/05/20 11:53:50;;;;;;;6.38;3.20;;;21.50;95.00;;;;;;4964108;28;20061;-91
2022/05/20 11:56:29;;;;;;;7.15;3.95;;;21.70;96.10;;;;;;4965507;28;20515;-88
2022/05/20 11:59:15;;;;;;;7.53;3.95;;;21.40;95.60;;;;;;4967257;28;20093;-85
2022/05/20 12:01:43;;;;;;;6.30;3.80;;;21.50;96.20;;;;;;4957538;28;20086;-86
2022/05/20 12:04:10;;;;;;;6.43;3.80;;;21.60;96.20;;;;;;4978364;28;20047;-87
2022/05/20 12:06:51;;;;;;;8.07;3.30;;;21.60;96.20;;;;;;4962203;28;20062;-87
2022/05/20 12:09:47;;;;;;;5.97;3.40;;;21.70;95.60;;;;;;4976010;28;20105;-88
2022/05/20 12:12:18;;;;;;;9.85;4.25;;;21.50;95.40;;;;;;4957673;28;20051;-94
2022/05/20 12:15:11;;;;;;;9.20;3.95;;;21.50;95.70;;;;;;4960122;28;20046;-87
2022/05/20 12:17:40;;;;;;;9.07;4.50;;;21.60;96.60;;;;;;4976737;28;20144;-92
2022/05/20 12:25:57;;;;;;;8.80;4.45;;;21.40;95.60;;;;;;4964112;28;20050;-88
2022/05/20 12:28:23;;;;;;;8.90;4.63;;;21.30;96.30;;;;;;4966784;28;20055;-86
2022/05/20 12:31:38;;;;;;;7.88;4.75;;;21.40;96.90;;;;;;4959398;28;20069;-86
2022/05/20 12:34:10;;;;;;;8.00;4.85;;;21.60;97.70;;;;;;4959933;28;20047;-86
2022/05/20 12:36:41;;;;;;;6.15;3.90;;;21.80;96.90;;;;;;4977670;28;20046;-89
2022/05/20 12:39:07;;;;;;;8.35;4.55;;;21.90;96.50;;;;;;4978932;28;20051;-95
2022/05/20 12:41:43;;;;;;;10.30;4.22;;;21.90;96.40;;;;;;4980157;28;20082;-85
2022/05/20 12:44:16;;;;;;;8.90;4.18;;;22.00;96.00;;;;;;4962906;28;20408;-85
2022/05/20 12:47:03;;;;;;;8.57;4.68;;;22.00;96.10;;;;;;4967796;28;20051;-88
2022/05/20 12:49:36;;;;;;;7.82;4.07;;;21.90;95.40;;;;;;4976558;28;20081;-86
2022/05/20 12:52:20;;;;;;;8.50;4.32;;;21.60;95.90;;;;;;4959187;28;20086;-89
2022/05/20 12:54:53;;;;;;;7.80;4.25;;;21.60;96.50;;;;;;4977923;28;20105;-86
2022/05/20 12:57:29;;;;;;;7.78;3.97;;;21.30;95.30;;;;;;4960183;28;20086;-90
2022/05/20 13:00:08;;;;;;;9.85;5.25;;;21.20;95.60;;;;;;4986348;28;20061;-88
2022/05/20 13:02:38;;;;;;;9.60;4.95;;;21.10;95.50;;;;;;4979191;28;20398;-87
2022/05/20 13:05:06;;;;;;;11.23;4.72;;;21.00;96.00;;;;;;4967724;28;20046;-87
2022/05/20 13:07:37;;;;;;;9.27;5.10;;;20.90;96.40;;;;;;4986420;28;20061;-90
2022/05/20 13:10:32;;;;;;;8.70;4.50;;;20.90;97.40;;;;;;4982771;28;20043;-86
2022/05/20 13:13:17;;;;;;;8.40;4.60;;;20.90;97.10;;;;;;4980956;28;20426;-87
2022/05/20 13:15:46;;;;;;;12.25;5.03;;;20.80;97.10;;;;;;4960562;28;20125;-84
2022/05/20 13:18:18;;;;;;;10.38;3.90;;;20.70;97.30;;;;;;4950003;28;20051;-95
2022/05/20 13:20:46;;;;;;;12.65;5.28;;;20.70;97.10;;;;;;4966406;28;20062;-87
2022/05/20 13:23:21;;;;;;;8.77;4.75;;;20.50;97.10;;;;;;4958209;28;20046;-85
2022/05/20 13:25:47;;;;;;;7.68;5.00;;;20.40;96.80;;;;;;4957439;28;20054;-87
2022/05/20 13:28:22;;;;;;;10.27;5.57;;;20.20;97.30;;;;;;4957764;28;20054;-85
2022/05/20 13:30:48;;;;;;;10.20;6.18;;;20.10;97.50;;;;;;4978384;28;20086;-84
2022/05/20 13:33:14;;;;;;;11.75;6.72;;;20.00;97.60;;;;;;4975268;28;20176;-84
2022/05/20 13:35:53;;;;;;;13.57;7.05;;;20.00;97.70;;;;;;4975358;28;20058;-83
2022/05/20 13:38:24;;;;;;;9.80;6.70;;;19.90;98.50;;;;;;4981595;28;20090;-86
2022/05/20 13:40:51;;;;;;;8.75;5.78;;;19.90;98.60;;;;;;4983461;28;20062;-83
2022/05/20 13:43:20;;;;;;;10.63;6.53;;;19.90;99.20;;;;;;4975029;28;20047;-86